Time;durP1;ratioP1;P1;durP2;ratioP2;P2;SDS_P1;SDS_P2;PMS_P1;PMS_P2;Temp;Humidity;BMP_temperature;BMP_pressure;BME280_temperature;BME280_humidity;BME280_pressure;Samples;Min_cycle;Max_cycle;Signal;HPM_P1;HPM_P2
2024/03/31 00:00:21;;;;;;;;;11.00;9.50;;;;;12.09;66.13;99336.19;2023647;28;2779769;-76
2024/03/31 00:01:32;;;;;;;;;12.00;10.33;;;;;12.15;66.41;99346.34;2009816;28;3508571;-75
2024/03/31 00:02:44;;;;;;;;;9.50;8.00;;;;;12.18;66.46;99350.56;2014890;28;2738815;-75
2024/03/31 00:03:54;;;;;;;;;10.00;9.33;;;;;12.16;66.76;99348.06;1976664;28;3486701;-72
2024/03/31 00:05:06;;;;;;;;;8.00;7.67;;;;;12.22;66.46;99354.72;2029710;28;2739849;-75
2024/03/31 00:06:17;;;;;;;;;11.00;10.00;;;;;12.18;66.08;99343.53;1986522;28;3507531;-77
2024/03/31 00:07:28;;;;;;;;;11.33;8.33;;;;;12.22;66.29;99354.72;2015260;28;3486694;-77
2024/03/31 00:08:39;;;;;;;;;11.00;9.00;;;;;12.24;66.54;99358.13;2016809;28;3482558;-77
2024/03/31 00:09:50;;;;;;;;;8.33;8.33;;;;;12.21;66.40;99339.84;2036913;28;2753894;-77
2024/03/31 00:11:07;;;;;;;;;7.17;5.83;;;;;12.25;66.50;99352.75;2013473;28;2737797;-78
2024/03/31 00:12:18;;;;;;;;;9.00;8.00;;;;;12.26;66.58;99348.31;1983664;28;2756089;-75
2024/03/31 00:13:29;;;;;;;;;8.67;8.33;;;;;12.23;66.33;99343.25;2016670;28;2746104;-69
2024/03/31 00:14:39;;;;;;;;;9.67;8.67;;;;;12.22;66.33;99338.94;2023951;28;3472163;-74
2024/03/31 00:15:50;;;;;;;;;11.33;8.67;;;;;12.22;66.42;99326.56;2027168;28;3485695;-74
2024/03/31 00:17:02;;;;;;;;;10.25;10.25;;;;;12.17;66.19;99312.03;2037486;28;1844070;-82
2024/03/31 00:18:12;;;;;;;;;11.00;8.50;;;;;12.20;66.10;99330.28;2008184;28;2765957;-81
2024/03/31 00:19:23;;;;;;;;;9.00;8.50;;;;;12.17;66.18;99328.69;2019942;28;2744039;-82
2024/03/31 00:20:34;;;;;;;;;8.33;8.33;;;;;12.19;66.47;99331.22;2020951;28;2739291;-82
2024/03/31 00:21:45;;;;;;;;;13.00;10.00;;;;;12.14;66.58;99316.53;2018960;28;3498153;-82
2024/03/31 00:22:56;;;;;;;;;10.67;9.33;;;;;12.19;66.74;99315.41;2020291;28;3481484;-82
2024/03/31 00:24:08;;;;;;;;;13.25;9.75;;;;;12.15;66.76;99310.31;2030890;28;1836705;-78
2024/03/31 00:25:18;;;;;;;;;7.33;7.33;;;;;12.15;66.38;99299.78;2005438;28;2738820;-78
2024/03/31 00:26:29;;;;;;;;;14.33;9.33;;;;;12.18;66.48;99313.69;2026547;28;2759720;-77
2024/03/31 00:27:41;;;;;;;;;8.50;8.50;;;;;12.14;66.33;99303.38;2026233;28;2744024;-76
2024/03/31 00:28:54;;;;;;;;;9.17;8.83;;;;;12.18;66.35;99309.28;2035938;28;2737786;-77
2024/03/31 00:30:07;;;;;;;;;10.17;8.83;;;;;12.14;66.19;99311.28;2015838;28;2746166;-77
2024/03/31 00:31:19;;;;;;;;;9.50;8.00;;;;;12.19;66.66;99315.41;2000430;28;1824313;-77
2024/03/31 00:32:32;;;;;;;;;9.33;6.83;;;;;12.19;66.40;99321.53;2036741;28;2738818;-77
2024/03/31 00:33:42;;;;;;;;;9.33;8.33;;;;;12.17;66.52;99317.28;1991842;28;3469013;-77
2024/03/31 00:34:54;;;;;;;;;7.75;7.75;;;;;12.18;66.40;99319.81;2043124;28;1816987;-77
2024/03/31 00:36:06;;;;;;;;;13.25;10.25;;;;;12.15;66.34;99312.09;2025996;28;1852427;-77
2024/03/31 00:37:19;;;;;;;;;11.33;9.17;;;;;12.14;66.37;99313.06;2044790;28;2739864;-77
2024/03/31 00:38:30;;;;;;;;;14.00;9.75;;;;;12.15;66.07;99320.00;1994254;28;1841978;-77
2024/03/31 00:39:42;;;;;;;;;10.50;9.25;;;;;12.13;66.21;99316.63;2015868;28;1841981;-77
2024/03/31 00:40:55;;;;;;;;;11.83;8.83;;;;;12.14;66.42;99313.91;2036177;28;2745098;-77
2024/03/31 00:42:05;;;;;;;;;13.00;8.33;;;;;12.13;66.55;99317.47;1994771;28;2771090;-77
2024/03/31 00:43:17;;;;;;;;;9.33;8.33;;;;;12.13;66.58;99322.75;2018693;28;3465893;-77
2024/03/31 00:44:27;;;;;;;;;9.33;9.33;;;;;12.18;66.73;99326.88;1995475;28;2756591;-78
2024/03/31 00:45:40;;;;;;;;;5.50;5.25;;;;;12.14;66.77;99323.59;2027487;28;2747152;-77
2024/03/31 00:46:53;;;;;;;;;8.33;7.17;;;;;12.14;66.99;99323.59;2044021;28;2744088;-77
2024/03/31 00:48:07;;;;;;;;;9.33;6.83;;;;;12.15;66.98;99323.50;2043662;28;2738862;-77
2024/03/31 00:49:18;;;;;;;;;9.67;9.67;;;;;12.15;66.83;99322.63;1998576;28;1832558;-77
2024/03/31 00:50:29;;;;;;;;;9.00;9.00;;;;;12.14;66.93;99315.69;2014241;28;2739868;-77
2024/03/31 00:51:39;;;;;;;;;11.33;10.00;;;;;12.18;67.24;99317.19;1985586;28;3504390;-77
2024/03/31 00:52:50;;;;;;;;;8.67;8.00;;;;;12.12;67.05;99310.47;2024497;28;2740344;-77
2024/03/31 00:54:01;;;;;;;;;8.67;7.67;;;;;12.18;67.06;99316.34;2043468;28;2730498;-77
2024/03/31 00:55:12;;;;;;;;;10.00;10.00;;;;;12.19;67.13;99321.53;1983362;28;2777436;-77
2024/03/31 00:56:22;;;;;;;;;9.67;9.67;;;;;12.19;67.42;99307.50;2017745;28;2764883;-77
2024/03/31 00:57:33;;;;;;;;;12.50;9.00;;;;;12.19;67.42;99321.53;2019330;28;2761723;-77
2024/03/31 00:58:44;;;;;;;;;9.00;9.00;;;;;12.15;67.22;99315.59;2034372;28;2741951;-77
2024/03/31 00:59:55;;;;;;;;;11.50;10.00;;;;;12.18;67.31;99319.81;1975406;28;2787842;-77
2024/03/31 01:01:06;;;;;;;;;8.00;8.00;;;;;12.18;67.40;99317.19;2004045;28;2743972;-77
2024/03/31 01:02:20;;;;;;;;;8.83;8.17;;;;;12.20;67.44;99320.56;2011882;28;2732566;-77
2024/03/31 01:03:31;;;;;;;;;6.00;3.67;;;;;12.23;67.36;99330.06;1991875;28;2754497;-83
2024/03/31 01:04:45;;;;;;;;;6.67;6.67;;;;;12.23;67.66;99333.56;2027547;28;2734664;-82
2024/03/31 01:06:01;;;;;;;;;6.17;6.17;;;;;12.21;67.33;99332.81;2006975;28;2740890;-83
2024/03/31 01:07:14;;;;;;;;;7.17;5.50;;;;;12.22;67.22;99325.75;2006321;28;2745604;-82
2024/03/31 01:08:25;;;;;;;;;7.33;5.00;;;;;12.21;67.39;99324.91;1986614;28;2747144;-82
2024/03/31 01:09:36;;;;;;;;;6.33;5.00;;;;;12.22;67.39;99331.03;2013154;28;2745056;-81
2024/03/31 01:10:48;;;;;;;;;9.20;5.00;;;;;12.19;67.55;99318.88;2042391;28;2753386;-81
2024/03/31 01:12:01;;;;;;;;;3.67;3.67;;;;;12.21;67.63;99318.78;2027002;28;2741936;-81
2024/03/31 01:13:15;;;;;;;;;7.67;4.67;;;;;12.21;67.41;99310.88;2011797;28;2745077;-82
2024/03/31 01:14:28;;;;;;;;;6.17;6.00;;;;;12.26;67.42;99316.72;2017790;28;2732561;-82
2024/03/31 01:15:41;;;;;;;;;7.67;6.00;;;;;12.27;67.57;99323.69;2005216;28;2745065;-82
2024/03/31 01:16:52;;;;;;;;;4.67;3.00;;;;;12.24;67.84;99318.59;1987953;28;2754482;-82
2024/03/31 01:18:03;;;;;;;;;6.67;4.67;;;;;12.27;67.29;99313.97;2042599;28;2746139;-82
2024/03/31 01:19:16;;;;;;;;;5.67;4.00;;;;;12.20;67.60;99306.56;2043837;28;2744059;-82
2024/03/31 01:20:30;;;;;;;;;3.50;3.00;;;;;12.27;67.54;99302.59;2033803;28;2732558;-82
2024/03/31 01:21:43;;;;;;;;;5.17;3.33;;;;;12.24;67.31;99305.44;2004699;28;2740914;-82
2024/03/31 01:22:58;;;;;;;;;6.17;4.83;;;;;12.28;67.91;99306.91;2003592;28;2752387;-83
2024/03/31 01:24:11;;;;;;;;;4.00;4.00;;;;;12.19;67.62;99299.59;1998288;28;2744022;-83
2024/03/31 01:25:24;;;;;;;;;3.17;3.17;;;;;12.22;67.70;99302.06;2005120;28;2754454;-83
2024/03/31 01:26:35;;;;;;;;;5.33;5.00;;;;;12.30;67.81;99312.09;1978156;28;2748200;-82
2024/03/31 01:27:49;;;;;;;;;5.17;4.83;;;;;12.25;67.83;99309.72;2032477;28;2740887;-82
2024/03/31 01:28:59;;;;;;;;;5.67;5.67;;;;;12.21;67.69;99293.28;1980382;28;2752403;-81
2024/03/31 01:30:10;;;;;;;;;6.33;4.33;;;;;12.25;67.30;99297.41;2033662;28;2748557;-82
2024/03/31 01:31:24;;;;;;;;;4.67;3.83;;;;;12.27;67.86;99305.25;2012516;28;2748174;-84
2024/03/31 01:32:35;;;;;;;;;4.00;4.00;;;;;12.29;68.06;99300.72;1979301;28;2745127;-85
2024/03/31 01:33:46;;;;;;;;;2.67;2.67;;;;;12.20;67.78;99285.50;2007604;28;2751857;-85
2024/03/31 01:34:59;;;;;;;;;4.83;1.50;;;;;12.27;67.48;99299.97;2027325;28;2746122;-84
2024/03/31 01:36:13;;;;;;;;;5.67;5.67;;;;;12.25;67.77;99300.06;2031435;28;2746087;-85
2024/03/31 01:37:26;;;;;;;;;4.17;2.83;;;;;12.24;67.75;99298.38;2004352;28;2750308;-81
2024/03/31 01:38:36;;;;;;;;;4.00;3.33;;;;;12.24;67.98;99292.25;1983811;28;2750269;-85
2024/03/31 01:39:47;;;;;;;;;5.67;4.00;;;;;12.29;68.01;99308.63;2040608;28;2752825;-85
2024/03/31 01:41:01;;;;;;;;;1.83;1.83;;;;;12.30;68.17;99301.56;2033042;28;2748177;-86
2024/03/31 01:42:16;;;;;;;;;3.33;3.33;;;;;12.32;67.90;99315.50;2037198;28;2737813;-85
2024/03/31 01:43:29;;;;;;;;;5.50;3.17;;;;;12.32;68.08;99307.59;2036925;28;2748177;-85
2024/03/31 01:44:43;;;;;;;;;5.67;3.17;;;;;12.32;67.74;99308.41;2011807;28;2752356;-85
2024/03/31 01:45:56;;;;;;;;;6.00;3.67;;;;;12.26;67.99;99295.63;2015796;28;2750280;-82
2024/03/31 01:47:09;;;;;;;;;2.67;2.67;;;;;12.26;67.88;99296.50;2020941;28;2751310;-82
2024/03/31 01:48:22;;;;;;;;;3.00;3.00;;;;;12.27;68.17;99286.81;2011017;28;2745057;-82
2024/03/31 01:49:35;;;;;;;;;5.83;5.17;;;;;12.33;68.01;99299.56;2004388;28;2748733;-83
2024/03/31 01:50:49;;;;;;;;;4.50;4.50;;;;;12.28;68.14;99299.00;2004340;28;2739841;-83
2024/03/31 01:52:02;;;;;;;;;3.50;2.83;;;;;12.30;67.83;99297.13;2004369;28;2752348;-85
2024/03/31 01:53:15;;;;;;;;;3.83;3.67;;;;;12.28;67.96;99285.84;2006407;28;2752373;-83
2024/03/31 01:54:28;;;;;;;;;5.17;4.67;;;;;12.29;67.93;99282.28;2005580;28;2751303;-83
2024/03/31 01:55:41;;;;;;;;;6.67;5.17;;;;;12.34;68.10;99287.25;2005835;28;2748197;-83
2024/03/31 01:56:55;;;;;;;;;5.83;4.50;;;;;12.27;67.81;99273.63;2003449;28;2746637;-83
2024/03/31 01:58:05;;;;;;;;;3.33;3.33;;;;;12.25;67.62;99262.31;1981502;28;2754782;-84
2024/03/31 01:59:16;;;;;;;;;4.33;4.33;;;;;12.26;67.96;99266.66;2024694;28;2754451;-83
2024/03/31 02:00:27;;;;;;;;;5.67;4.33;;;;;12.25;67.93;99272.84;2022346;28;2745061;-84
2024/03/31 02:01:38;;;;;;;;;5.33;5.33;;;;;12.32;68.35;99279.44;2024030;28;2747131;-84
2024/03/31 02:02:49;;;;;;;;;6.33;4.33;;;;;12.22;67.73;99263.34;2026557;28;2754940;-84
2024/03/31 02:04:00;;;;;;;;;4.00;3.33;;;;;12.27;68.33;99271.81;2035343;28;2752376;-84
2024/03/31 02:05:10;;;;;;;;;5.33;4.33;;;;;12.24;67.91;99268.53;1979061;28;3459667;-84
2024/03/31 02:06:21;;;;;;;;;6.33;5.00;;;;;12.27;67.92;99271.00;2020310;28;2742973;-83
2024/03/31 02:07:32;;;;;;;;;5.33;4.67;;;;;12.31;68.13;99276.91;1979994;28;2752860;-84
2024/03/31 02:08:42;;;;;;;;;10.00;6.00;;;;;12.28;68.01;99272.66;2018862;28;2771243;-84
2024/03/31 02:09:54;;;;;;;;;3.00;3.00;;;;;12.20;67.91;99261.78;2020851;28;2735719;-84
2024/03/31 02:11:04;;;;;;;;;6.00;4.33;;;;;12.23;67.98;99265.06;1980450;28;3470064;-84
2024/03/31 02:12:15;;;;;;;;;5.33;3.33;;;;;12.27;68.36;99271.81;2027671;28;2743002;-84
2024/03/31 02:13:29;;;;;;;;;5.17;4.17;;;;;12.20;68.12;99259.97;2008189;28;2752356;-84
2024/03/31 02:14:42;;;;;;;;;5.83;5.50;;;;;12.18;68.08;99267.13;2013551;28;2746087;-84
2024/03/31 02:15:55;;;;;;;;;8.50;3.83;;;;;12.22;68.34;99267.81;2013039;28;2752369;-85
2024/03/31 02:17:08;;;;;;;;;4.50;3.00;;;;;12.17;68.27;99264.63;2014823;28;2746138;-84
2024/03/31 02:18:21;;;;;;;;;7.17;5.83;;;;;12.19;68.37;99271.47;2013376;28;2746676;-84
2024/03/31 02:19:35;;;;;;;;;8.00;5.50;;;;;12.13;68.15;99258.69;2005097;28;2748189;-84
2024/03/31 02:20:49;;;;;;;;;3.17;3.17;;;;;12.19;68.08;99266.22;2011838;28;2739876;-84
2024/03/31 02:22:02;;;;;;;;;5.33;5.33;;;;;12.15;68.33;99264.69;2005261;28;2754447;-84
2024/03/31 02:23:12;;;;;;;;;4.67;3.67;;;;;12.17;68.64;99268.09;1981380;28;2746133;-84
2024/03/31 02:24:23;;;;;;;;;2.33;2.33;;;;;12.12;68.10;99268.34;2034537;28;2744062;-80
2024/03/31 02:25:37;;;;;;;;;5.33;5.17;;;;;12.08;67.99;99258.94;2012006;28;2741970;-79
2024/03/31 02:26:50;;;;;;;;;3.50;3.50;;;;;12.03;67.82;99253.97;2020605;28;2741939;-79
2024/03/31 02:28:04;;;;;;;;;3.67;3.67;;;;;12.08;67.86;99266.84;2012629;28;2745060;-83
2024/03/31 02:29:18;;;;;;;;;5.83;5.50;;;;;12.08;67.99;99269.47;2006807;28;2746130;-84
2024/03/31 02:30:31;;;;;;;;;4.50;3.83;;;;;12.02;67.98;99259.34;2006488;28;2735694;-84
2024/03/31 02:31:45;;;;;;;;;5.00;4.00;;;;;12.04;67.88;99274.13;2014227;28;2746113;-84
2024/03/31 02:32:55;;;;;;;;;4.00;4.00;;;;;11.97;67.91;99270.16;1995782;28;2754496;-84
2024/03/31 02:34:07;;;;;;;;;4.00;4.00;;;;;11.92;68.00;99254.66;2034440;28;2754888;-85
2024/03/31 02:35:17;;;;;;;;;4.00;4.00;;;;;11.96;68.28;99268.47;1988508;28;2747140;-85
2024/03/31 02:36:28;;;;;;;;;7.00;4.00;;;;;11.93;68.09;99264.25;2036983;28;2739836;-84
2024/03/31 02:37:42;;;;;;;;;3.50;3.00;;;;;11.91;68.39;99266.13;2033131;28;2739841;-84
2024/03/31 02:38:56;;;;;;;;;6.00;4.00;;;;;11.91;68.22;99266.13;1999047;28;2748226;-84
2024/03/31 02:40:09;;;;;;;;;4.00;3.33;;;;;11.89;68.29;99268.00;2012973;28;2748166;-84
2024/03/31 02:41:22;;;;;;;;;4.33;4.33;;;;;11.79;67.94;99259.84;2028768;28;2746122;-84
2024/03/31 02:42:36;;;;;;;;;6.00;3.50;;;;;11.84;68.25;99262.19;2005059;28;2754443;-84
2024/03/31 02:43:49;;;;;;;;;4.33;3.50;;;;;11.77;68.51;99247.72;2005017;28;2752361;-84
2024/03/31 02:45:03;;;;;;;;;4.17;4.17;;;;;11.74;68.22;99247.91;1997673;28;2742969;-84
2024/03/31 02:46:13;;;;;;;;;6.00;4.00;;;;;11.77;68.42;99255.59;2004146;28;2750296;-84
2024/03/31 02:47:25;;;;;;;;;3.67;3.00;;;;;11.72;68.57;99244.50;2032648;28;2754436;-84
2024/03/31 02:48:38;;;;;;;;;7.50;5.67;;;;;11.70;68.52;99244.63;2013832;28;2746161;-84
2024/03/31 02:49:48;;;;;;;;;5.67;4.00;;;;;11.73;68.50;99251.50;1993618;28;2747266;-84
2024/03/31 02:50:59;;;;;;;;;6.00;4.33;;;;;11.67;68.39;99248.28;2035301;28;2750257;-84
2024/03/31 02:52:12;;;;;;;;;5.00;5.00;;;;;11.72;68.29;99255.91;2007414;28;2743033;-84
2024/03/31 02:53:26;;;;;;;;;4.83;4.00;;;;;11.63;68.74;99246.75;2014462;28;2743010;-85
2024/03/31 02:54:36;;;;;;;;;5.00;5.00;;;;;11.64;68.44;99242.34;1995521;28;2754431;-84
2024/03/31 02:55:47;;;;;;;;;4.00;4.00;;;;;11.62;68.75;99246.88;2044199;28;2743999;-84
2024/03/31 02:57:00;;;;;;;;;5.33;3.83;;;;;11.57;68.88;99236.63;2009289;28;2748178;-84
2024/03/31 02:58:14;;;;;;;;;4.67;4.00;;;;;11.57;68.62;99248.00;2031086;28;2748165;-85
2024/03/31 02:59:27;;;;;;;;;8.00;6.17;;;;;11.54;68.62;99242.06;2044685;28;2738844;-85
2024/03/31 03:00:40;;;;;;;;;7.67;6.00;;;;;11.59;68.57;99253.16;2012586;28;2748158;-84
2024/03/31 03:01:53;;;;;;;;;8.50;7.50;;;;;11.53;68.37;99245.66;2002039;28;2737766;-82
2024/03/31 03:03:06;;;;;;;;;6.83;6.00;;;;;11.51;68.59;99244.91;2030067;28;2747159;-80
2024/03/31 03:04:20;;;;;;;;;6.50;5.00;;;;;11.48;68.44;99243.31;2012275;28;2748193;-81
2024/03/31 03:05:33;;;;;;;;;7.00;7.00;;;;;11.42;68.48;99233.16;2014201;28;2739837;-80
2024/03/31 03:06:46;;;;;;;;;5.83;4.83;;;;;11.40;68.73;99235.88;2037103;28;2740934;-78
2024/03/31 03:07:59;;;;;;;;;6.67;6.00;;;;;11.38;68.59;99236.91;2004647;28;2746094;-79
2024/03/31 03:09:09;;;;;;;;;8.67;7.67;;;;;11.45;68.75;99249.59;1994566;28;2742283;-80
2024/03/31 03:10:21;;;;;;;;;6.00;6.00;;;;;11.43;68.48;99251.47;2035645;28;2733583;-80
2024/03/31 03:11:34;;;;;;;;;8.17;5.67;;;;;11.37;68.35;99238.69;2011864;28;2734636;-80
2024/03/31 03:12:47;;;;;;;;;7.33;6.17;;;;;11.32;68.80;99231.09;2030018;28;2747683;-80
2024/03/31 03:14:00;;;;;;;;;8.00;6.33;;;;;11.32;68.53;99232.84;2044715;28;2742974;-80
2024/03/31 03:15:13;;;;;;;;;9.50;7.83;;;;;11.24;68.81;99215.75;2045211;28;2749223;-80
2024/03/31 03:16:27;;;;;;;;;6.00;6.00;;;;;11.25;68.57;99225.34;2022141;28;2727384;-77
2024/03/31 03:17:40;;;;;;;;;7.33;7.33;;;;;11.30;68.86;99226.84;2035287;28;2731528;-77
2024/03/31 03:18:53;;;;;;;;;8.00;8.00;;;;;11.22;68.88;99215.00;2029258;28;2748171;-78
2024/03/31 03:20:06;;;;;;;;;6.67;5.17;;;;;11.23;68.92;99221.13;2033126;28;2739845;-78
2024/03/31 03:21:20;;;;;;;;;12.00;8.50;;;;;11.14;68.68;99210.22;2027326;28;2759640;-78
2024/03/31 03:22:30;;;;;;;;;10.00;8.00;;;;;11.18;68.75;99221.41;1980288;28;2762791;-78
2024/03/31 03:23:41;;;;;;;;;9.00;8.33;;;;;11.17;68.72;99222.31;2044019;28;2739848;-76
2024/03/31 03:24:55;;;;;;;;;10.00;9.00;;;;;11.16;68.83;99223.25;1994215;28;2769100;-76
2024/03/31 03:26:08;;;;;;;;;9.17;8.50;;;;;11.09;68.76;99216.66;2044888;28;2745065;-77
2024/03/31 03:27:21;;;;;;;;;10.17;9.33;;;;;11.15;68.67;99226.84;2020332;28;2759627;-77
2024/03/31 03:28:36;;;;;;;;;6.50;6.50;;;;;11.02;68.80;99210.94;2022057;28;2732565;-78
2024/03/31 03:29:52;;;;;;;;;8.83;8.00;;;;;11.05;68.69;99212.53;2045206;28;2744043;-77
2024/03/31 03:31:04;;;;;;;;;7.00;7.00;;;;;11.02;68.51;99209.16;1994564;28;2746194;-78
2024/03/31 03:32:17;;;;;;;;;9.83;8.33;;;;;10.99;68.72;99204.06;2045175;28;2742993;-77
2024/03/31 03:33:28;;;;;;;;;10.00;7.33;;;;;11.05;68.80;99221.28;1980696;28;3475268;-77
2024/03/31 03:34:39;;;;;;;;;8.00;7.00;;;;;11.00;68.54;99211.03;2028397;28;2738808;-77
2024/03/31 03:35:49;;;;;;;;;9.67;6.67;;;;;10.97;68.66;99213.00;1987291;28;2760215;-77
2024/03/31 03:37:00;;;;;;;;;7.00;7.00;;;;;10.93;68.62;99208.84;2035540;28;2745037;-77
2024/03/31 03:38:13;;;;;;;;;6.50;6.00;;;;;10.97;68.76;99215.63;2013735;28;2746098;-77
2024/03/31 03:39:27;;;;;;;;;5.17;5.17;;;;;10.93;68.56;99214.97;2036651;28;2746110;-76
2024/03/31 03:40:40;;;;;;;;;5.67;5.67;;;;;10.84;68.64;99200.56;2038521;28;2745057;-76
2024/03/31 03:41:50;;;;;;;;;12.33;6.33;;;;;10.80;68.51;99197.28;2010340;28;2773270;-77
2024/03/31 03:43:01;;;;;;;;;7.33;6.33;;;;;10.84;68.92;99207.63;2026754;28;2748210;-77
2024/03/31 03:44:15;;;;;;;;;7.00;6.00;;;;;10.82;68.50;99206.84;2013132;28;2746109;-77
2024/03/31 03:45:28;;;;;;;;;8.83;5.50;;;;;10.78;68.44;99195.69;2043482;28;2739868;-78
2024/03/31 03:46:38;;;;;;;;;6.00;6.00;;;;;10.79;68.48;99202.66;1995352;28;2752347;-77
2024/03/31 03:47:49;;;;;;;;;6.00;6.00;;;;;10.77;68.66;99202.72;2043544;28;2746146;-78
2024/03/31 03:49:03;;;;;;;;;5.50;5.50;;;;;10.68;68.62;99193.59;2021210;28;2740887;-78
2024/03/31 03:50:16;;;;;;;;;5.67;5.67;;;;;10.72;69.01;99204.78;2020861;28;2746096;-78
2024/03/31 03:51:29;;;;;;;;;7.00;6.00;;;;;10.70;68.58;99198.75;2044887;28;2746130;-78
2024/03/31 03:52:42;;;;;;;;;7.00;7.00;;;;;10.67;68.66;99196.31;2020153;28;2746113;-78
2024/03/31 03:53:55;;;;;;;;;6.83;6.33;;;;;10.70;68.84;99209.28;2036294;28;2732550;-79
2024/03/31 03:55:08;;;;;;;;;5.33;3.67;;;;;10.61;68.57;99196.69;2003840;28;2746099;-80
2024/03/31 03:56:19;;;;;;;;;10.00;8.00;;;;;10.55;68.81;99185.59;1978871;28;3480520;-78
2024/03/31 03:57:31;;;;;;;;;3.33;3.33;;;;;10.66;68.66;99205.13;2017706;28;2745085;-77
2024/03/31 03:58:45;;;;;;;;;8.67;6.67;;;;;10.55;68.58;99188.22;2021121;28;2745041;-77
2024/03/31 03:59:58;;;;;;;;;8.83;6.67;;;;;10.60;68.96;99198.44;2007540;28;2743009;-78
2024/03/31 04:01:08;;;;;;;;;7.33;6.00;;;;;10.52;68.67;99187.56;1988305;28;2741927;-77
2024/03/31 04:02:19;;;;;;;;;6.67;6.67;;;;;10.53;68.97;99192.72;2021056;28;2748172;-77
2024/03/31 04:03:30;;;;;;;;;3.67;2.33;;;;;10.52;68.76;99196.25;2036787;28;2737770;-78
2024/03/31 04:04:44;;;;;;;;;6.50;6.00;;;;;10.47;68.70;99185.13;2005052;28;2743360;-78
2024/03/31 04:05:55;;;;;;;;;8.00;5.33;;;;;10.49;68.70;99195.56;2001015;28;3463794;-77
2024/03/31 04:07:08;;;;;;;;;5.00;4.50;;;;;10.44;68.58;99185.34;2020557;28;2749271;-77
2024/03/31 04:08:22;;;;;;;;;6.83;6.67;;;;;10.50;68.69;99195.47;1997780;28;2750305;-77
2024/03/31 04:09:35;;;;;;;;;6.00;6.00;;;;;10.46;68.77;99180.84;2036228;28;2740886;-76
2024/03/31 04:10:48;;;;;;;;;7.17;7.17;;;;;10.44;68.62;99190.59;2042897;28;2739856;-76
2024/03/31 04:12:02;;;;;;;;;4.00;4.00;;;;;10.41;68.60;99188.13;2015060;28;2744024;-76
2024/03/31 04:13:15;;;;;;;;;7.17;6.50;;;;;10.38;68.54;99181.28;2004332;28;2750275;-76
2024/03/31 04:14:28;;;;;;;;;6.83;6.83;;;;;10.37;68.55;99184.00;2006892;28;2725801;-76
2024/03/31 04:15:42;;;;;;;;;7.50;5.50;;;;;10.37;68.50;99184.00;2042036;28;2748172;-76
2024/03/31 04:16:55;;;;;;;;;6.50;5.67;;;;;10.35;68.53;99184.91;2004255;28;2739837;-76
2024/03/31 04:18:08;;;;;;;;;6.50;5.67;;;;;10.26;68.58;99167.06;2027667;28;2748213;-76
2024/03/31 04:19:26;;;;;;;;;5.33;4.67;;;;;10.27;68.37;99175.78;2013560;28;2733615;-76
2024/03/31 04:20:42;;;;;;;;;7.50;7.00;;;;;10.26;68.71;99180.19;2033562;28;2735786;-76
2024/03/31 04:21:55;;;;;;;;;6.00;6.00;;;;;10.26;68.62;99182.81;2029039;28;2744019;-76
2024/03/31 04:23:09;;;;;;;;;7.00;6.67;;;;;10.20;68.48;99173.50;2012416;28;2739864;-77
2024/03/31 04:24:22;;;;;;;;;7.00;6.50;;;;;10.16;68.72;99166.75;2043152;28;2743001;-80
2024/03/31 04:25:35;;;;;;;;;6.00;5.83;;;;;10.19;68.54;99171.84;2041348;28;2746107;-80
2024/03/31 04:26:46;;;;;;;;;10.00;5.33;;;;;10.15;68.59;99162.41;1984498;28;3487779;-80
2024/03/31 04:27:57;;;;;;;;;8.00;7.67;;;;;10.10;68.45;99159.22;2031476;28;2741945;-81
2024/03/31 04:29:10;;;;;;;;;6.00;6.00;;;;;10.07;68.81;99152.38;2003932;28;2739877;-80
2024/03/31 04:30:23;;;;;;;;;7.50;7.50;;;;;10.06;68.69;99158.53;2027246;28;2746095;-79
2024/03/31 04:31:52;;;;;;;;;6.67;6.67;;;;;10.07;68.66;99157.63;2035858;28;2740886;-79
2024/03/31 04:33:02;;;;;;;;;7.33;6.00;;;;;10.13;68.85;99166.91;2006604;28;2748226;-80
2024/03/31 04:34:13;;;;;;;;;7.33;6.33;;;;;10.11;68.94;99164.38;2029962;28;2750254;-79
2024/03/31 04:35:26;;;;;;;;;8.67;6.83;;;;;10.04;68.83;99155.16;2012852;28;2751376;-80
2024/03/31 04:36:40;;;;;;;;;6.50;6.00;;;;;9.99;68.52;99147.56;2035543;28;2745077;-80
2024/03/31 04:37:53;;;;;;;;;5.50;4.00;;;;;10.03;68.57;99161.34;2028618;28;2739844;-74
2024/03/31 04:39:06;;;;;;;;;7.83;6.00;;;;;10.02;68.59;99162.28;2006729;28;2742992;-74
2024/03/31 04:40:20;;;;;;;;;8.33;8.33;;;;;10.00;68.70;99156.28;2026497;28;2749255;-75
2024/03/31 04:41:31;;;;;;;;;11.00;8.00;;;;;9.94;68.87;99153.97;2006713;28;2761279;-77
2024/03/31 04:42:42;;;;;;;;;5.00;5.00;;;;;10.00;68.63;99158.91;2031621;28;2754460;-76
2024/03/31 04:43:55;;;;;;;;;6.67;5.67;;;;;9.99;68.65;99159.81;2007827;28;2752737;-76
2024/03/31 04:45:08;;;;;;;;;4.33;2.67;;;;;9.98;68.70;99163.38;2032193;28;2728435;-75
2024/03/31 04:46:21;;;;;;;;;8.00;6.67;;;;;9.95;68.68;99153.06;2034271;28;2740902;-75
2024/03/31 04:47:34;;;;;;;;;9.33;5.67;;;;;9.94;68.88;99157.47;2028710;28;2747132;-75
2024/03/31 04:48:48;;;;;;;;;7.00;6.67;;;;;9.92;68.90;99159.31;2035015;28;2747168;-75
2024/03/31 04:50:01;;;;;;;;;8.17;6.33;;;;;9.91;69.45;99155.00;2035730;28;2742966;-76
2024/03/31 04:51:15;;;;;;;;;4.67;4.50;;;;;9.90;68.80;99159.38;2004538;28;2748178;-76
2024/03/31 04:52:26;;;;;;;;;7.33;6.00;;;;;9.86;68.91;99159.66;2001545;28;2746245;-76
2024/03/31 04:53:37;;;;;;;;;6.00;6.00;;;;;9.90;68.98;99174.31;2033945;28;2734669;-75
2024/03/31 04:54:51;;;;;;;;;7.50;6.00;;;;;9.87;68.95;99167.47;2028043;28;2741382;-76
2024/03/31 04:56:02;;;;;;;;;10.67;7.00;;;;;9.85;69.17;99156.16;2001694;28;3465893;-79
2024/03/31 04:57:12;;;;;;;;;8.67;6.00;;;;;9.85;69.53;99157.97;2008559;28;2744060;-79
2024/03/31 04:58:23;;;;;;;;;7.33;7.00;;;;;9.89;69.08;99162.97;2018402;28;2733138;-80
2024/03/31 04:59:35;;;;;;;;;9.00;7.00;;;;;9.87;69.29;99163.97;2019997;28;2752794;-79
2024/03/31 05:00:48;;;;;;;;;8.50;7.83;;;;;9.84;69.42;99159.75;2028231;28;2739872;-79
2024/03/31 05:02:01;;;;;;;;;10.33;8.00;;;;;9.79;69.30;99149.50;2035145;28;2750676;-80
2024/03/31 05:03:14;;;;;;;;;8.33;6.00;;;;;9.84;69.25;99164.16;2035385;28;2746142;-79
2024/03/31 05:04:28;;;;;;;;;6.50;6.33;;;;;9.76;69.46;99146.19;2011261;28;2733981;-79
2024/03/31 05:05:41;;;;;;;;;6.33;6.00;;;;;9.77;69.35;99145.28;2010963;28;2742986;-79
2024/03/31 05:06:54;;;;;;;;;9.17;7.67;;;;;9.77;69.31;99147.91;2027054;28;2740907;-79
2024/03/31 05:08:07;;;;;;;;;8.33;6.67;;;;;9.78;69.31;99136.44;2006544;28;2741010;-79
2024/03/31 05:09:20;;;;;;;;;7.00;5.33;;;;;9.77;69.54;99145.28;2034179;28;2748257;-80
2024/03/31 05:10:33;;;;;;;;;6.50;6.33;;;;;9.78;69.38;99139.06;2004116;28;2745061;-81
2024/03/31 05:11:47;;;;;;;;;6.17;6.17;;;;;9.80;69.19;99150.34;2027617;28;2748210;-80
2024/03/31 05:13:01;;;;;;;;;7.00;7.00;;;;;9.77;69.12;99147.91;2027592;28;2739881;-80
2024/03/31 05:14:14;;;;;;;;;6.50;6.50;;;;;9.76;69.28;99148.81;2028413;28;2739142;-79
2024/03/31 05:15:27;;;;;;;;;8.17;5.50;;;;;9.74;69.62;99140.19;2027087;28;2748189;-79
2024/03/31 05:16:37;;;;;;;;;8.00;5.67;;;;;9.81;69.46;99157.28;2001639;28;2746571;-79
2024/03/31 05:17:48;;;;;;;;;11.00;7.00;;;;;9.73;69.53;99144.59;2016981;28;2765925;-80
2024/03/31 05:19:00;;;;;;;;;7.00;6.00;;;;;9.77;69.51;99153.16;2026829;28;2739841;-78
2024/03/31 05:20:13;;;;;;;;;6.50;6.50;;;;;9.74;69.74;99145.44;2007179;28;2732590;-78
2024/03/31 05:21:26;;;;;;;;;6.50;5.67;;;;;9.70;69.83;99150.03;2027052;28;2746110;-78
2024/03/31 05:22:39;;;;;;;;;8.00;6.83;;;;;9.74;69.99;99155.94;2033817;28;2739889;-79
2024/03/31 05:23:52;;;;;;;;;8.17;6.67;;;;;9.77;69.60;99156.63;2029332;28;2746135;-75
2024/03/31 05:25:06;;;;;;;;;7.83;6.00;;;;;9.78;69.70;99155.66;2026408;28;2741927;-76
2024/03/31 05:26:19;;;;;;;;;7.67;6.83;;;;;9.78;69.86;99154.81;2011122;28;2752360;-76
2024/03/31 05:27:32;;;;;;;;;8.33;7.50;;;;;9.76;69.78;99152.28;2010604;28;2743017;-76
2024/03/31 05:28:45;;;;;;;;;7.00;5.50;;;;;9.73;69.72;99147.22;2029445;28;2742958;-76
2024/03/31 05:29:58;;;;;;;;;5.50;4.00;;;;;9.77;69.70;99153.16;2029194;28;2752715;-80
2024/03/31 05:31:12;;;;;;;;;8.67;6.83;;;;;9.76;69.85;99151.44;2013435;28;2733607;-80
2024/03/31 05:32:25;;;;;;;;;10.67;9.00;;;;;9.75;69.92;99149.75;2036746;28;2765897;-77